Time;durP1;ratioP1;P1;durP2;ratioP2;P2;SDS_P1;SDS_P2;PMS_P1;PMS_P2;Temp;Humidity;BMP_temperature;BMP_pressure;BME280_temperature;BME280_humidity;BME280_pressure;Samples;Min_cycle;Max_cycle;Signal;HPM_P1;HPM_P2
2022/04/13 00:02:22;;;;;;;;;;;;;;;6.61;59.51;101249.88;4958756;29;949;-94
2022/04/13 00:04:48;;;;;;;;;;;;;;;6.61;59.48;101249.88;4956962;28;1907;-95
2022/04/13 00:07:15;;;;;;;;;;;;;;;6.60;59.63;101251.72;4937181;29;1206;-94
2022/04/13 00:09:41;;;;;;;;;;;;;;;6.59;59.78;101247.38;4931464;29;2320;-94
2022/04/13 00:12:08;;;;;;;;;;;;;;;6.58;59.50;101250.22;4958236;29;1009;-94
2022/04/13 00:14:35;;;;;;;;;;;;;;;6.57;59.43;101241.34;4936221;29;1531;-94
2022/04/13 00:17:01;;;;;;;;;;;;;;;6.57;59.38;101245.88;4970463;28;2269;-94
2022/04/13 00:19:28;;;;;;;;;;;;;;;6.57;59.62;101245.88;4939283;29;1326;-94
2022/04/13 00:21:56;;;;;;;;;;;;;;;6.55;59.48;101245.22;4966760;28;1426;-95
2022/04/13 00:24:22;;;;;;;;;;;;;;;6.56;59.59;101241.56;4956869;29;1915;-95
2022/04/13 00:26:49;;;;;;;;;;;;;;;6.54;59.48;101236.38;4942138;29;2275;-93
2022/04/13 00:29:15;;;;;;;;;;;;;;;6.54;59.78;101247.06;4948481;29;4882;-94
2022/04/13 00:31:42;;;;;;;;;;;;;;;6.53;59.43;101245.41;4939658;29;5354;-94
2022/04/13 00:34:08;;;;;;;;;;;;;;;6.52;59.54;101240.22;4944447;29;1344;-94
2022/04/13 00:36:35;;;;;;;;;;;;;;;6.51;59.47;101242.06;4941484;29;4953;-93
2022/04/13 00:39:01;;;;;;;;;;;;;;;6.51;59.65;101243.91;4959008;28;1516;-94
2022/04/13 00:41:28;;;;;;;;;;;;;;;6.51;59.35;101246.59;4976534;28;1329;-93
2022/04/13 00:43:55;;;;;;;;;;;;;;;6.50;59.83;101250.25;4958669;28;1389;-94
2022/04/13 00:46:21;;;;;;;;;;;;;;;6.50;59.75;101252.94;4942676;29;2330;-94
2022/04/13 00:48:48;;;;;;;;;;;;;;;6.48;59.47;101242.41;4931206;29;2064;-94
2022/04/13 00:51:14;;;;;;;;;;;;;;;6.48;59.67;101238.91;4959965;28;1292;-94
2022/04/13 00:53:41;;;;;;;;;;;;;;;6.48;59.80;101244.28;4969049;28;1396;-94
2022/04/13 00:56:07;;;;;;;;;;;;;;;6.48;59.35;101247.78;4937397;29;2458;-94
2022/04/13 00:58:34;;;;;;;;;;;;;;;6.46;59.37;101249.78;4943093;29;1887;-94
2022/04/13 01:01:00;;;;;;;;;;;;;;;6.47;59.33;101253.28;4924483;29;2573;-94
2022/04/13 01:03:27;;;;;;;;;;;;;;;6.46;59.42;101246.28;4921584;29;1217;-94
2022/04/13 01:05:53;;;;;;;;;;;;;;;6.45;59.38;101241.94;4921487;29;1888;-94
2022/04/13 01:08:20;;;;;;;;;;;;;;;6.45;59.45;101237.41;4941172;29;1904;-94
2022/04/13 01:10:47;;;;;;;;;;;;;;;6.44;59.38;101229.56;4927088;29;2030;-94
2022/04/13 01:13:13;;;;;;;;;;;;;;;6.44;59.36;101237.59;4927497;29;2498;-94
2022/04/13 01:15:40;;;;;;;;;;;;;;;6.45;59.45;101229.41;4933878;29;1968;-94
2022/04/13 01:18:06;;;;;;;;;;;;;;;6.43;59.45;101227.91;4937329;29;1199;-94
2022/04/13 01:20:34;;;;;;;;;;;;;;;6.42;59.28;101219.03;4944627;28;1746;-94
2022/04/13 01:23:00;;;;;;;;;;;;;;;6.41;59.74;101214.69;4921605;29;1471;-94
2022/04/13 01:25:27;;;;;;;;;;;;;;;6.41;59.46;101214.69;4934291;29;1914;-94
2022/04/13 01:27:54;;;;;;;;;;;;;;;6.41;59.64;101198.63;4955701;29;2552;-93
2022/04/13 01:30:23;;;;;;;;;;;;;;;6.39;59.25;101187.28;4941066;28;1484;-93
2022/04/13 01:32:49;;;;;;;;;;;;;;;6.39;59.25;101173.09;4952868;29;1181;-94
2022/04/13 01:35:16;;;;;;;;;;;;;;;6.39;59.22;101168.56;4969386;28;1289;-94
2022/04/13 01:37:42;;;;;;;;;;;;;;;6.39;59.50;101173.09;4972209;28;1209;-94
2022/04/13 01:40:10;;;;;;;;;;;;;;;6.39;59.24;101170.41;4975204;28;1213;-94
2022/04/13 01:42:37;;;;;;;;;;;;;;;6.38;59.51;101185.59;4949249;29;1481;-94
2022/04/13 01:45:03;;;;;;;;;;;;;;;6.36;59.17;101187.66;4952213;29;1989;-95
2022/04/13 01:47:30;;;;;;;;;;;;;;;6.35;59.36;101192.16;4960655;28;2283;-94
2022/04/13 01:49:56;;;;;;;;;;;;;;;6.33;59.47;101180.81;4953281;29;1222;-94
2022/04/13 01:52:23;;;;;;;;;;;;;;;6.33;59.34;101178.13;4956328;29;1340;-93
2022/04/13 01:54:49;;;;;;;;;;;;;;;6.34;59.53;101184.31;4956213;29;1299;-93
2022/04/13 01:57:17;;;;;;;;;;;;;;;6.33;59.24;101178.13;4956896;28;1288;-94
2022/04/13 01:59:43;;;;;;;;;;;;;;;6.32;59.39;101176.47;4965119;28;1233;-94
2022/04/13 02:02:11;;;;;;;;;;;;;;;6.31;59.15;101180.13;4952389;29;1321;-94
2022/04/13 02:04:37;;;;;;;;;;;;;;;6.30;59.50;101178.47;4943134;29;2119;-94
2022/04/13 02:07:04;;;;;;;;;;;;;;;6.31;59.30;101177.47;4956271;29;1759;-94
2022/04/13 02:09:30;;;;;;;;;;;;;;;6.29;59.30;101190.16;4952850;29;1381;-94
2022/04/13 02:11:57;;;;;;;;;;;;;;;6.29;59.36;101192.00;4975997;28;1330;-94
2022/04/13 02:14:23;;;;;;;;;;;;;;;6.28;59.43;101169.78;4975720;28;1322;-93
2022/04/13 02:16:50;;;;;;;;;;;;;;;6.28;59.19;101167.13;4958199;29;2012;-94
2022/04/13 02:19:17;;;;;;;;;;;;;;;6.29;59.10;101175.97;4959922;29;1237;-94
2022/04/13 02:21:44;;;;;;;;;;;;;;;6.27;59.21;101151.25;4954213;29;2065;-94
2022/04/13 02:24:11;;;;;;;;;;;;;;;6.28;59.66;101160.94;4975946;28;1541;-93
2022/04/13 02:26:37;;;;;;;;;;;;;;;6.27;59.17;101167.31;4960005;29;1992;-94
2022/04/13 02:29:04;;;;;;;;;;;;;;;6.27;59.34;101148.56;4940683;29;2014;-94
2022/04/13 02:31:30;;;;;;;;;;;;;;;6.25;59.10;101159.44;4949420;28;1777;-94
2022/04/13 02:33:57;;;;;;;;;;;;;;;6.25;59.30;101164.78;4960624;29;1008;-94
2022/04/13 02:36:23;;;;;;;;;;;;;;;6.25;59.21;101153.25;4958606;29;1823;-94
2022/04/13 02:38:50;;;;;;;;;;;;;;;6.24;59.17;101149.75;4957886;29;2046;-93
2022/04/13 02:41:16;;;;;;;;;;;;;;;6.24;59.25;101156.97;4941699;29;2475;-94
2022/04/13 02:43:43;;;;;;;;;;;;;;;6.23;59.40;101153.44;4958018;28;2419;-94
2022/04/13 02:46:09;;;;;;;;;;;;;;;6.24;59.21;101146.25;4965158;28;2020;-94
2022/04/13 02:48:36;;;;;;;;;;;;;;;6.22;59.30;101143.75;4953507;28;1848;-94
2022/04/13 02:51:02;;;;;;;;;;;;;;;6.21;59.18;101155.47;4940325;29;2369;-94
2022/04/13 02:53:30;;;;;;;;;;;;;;;6.21;59.20;101149.28;4958227;29;1376;-94
2022/04/13 02:55:56;;;;;;;;;;;;;;;6.21;59.19;101151.97;4959266;29;1751;-94
2022/04/13 02:58:23;;;;;;;;;;;;;;;6.19;59.07;101154.81;4955553;29;1669;-93
2022/04/13 03:00:49;;;;;;;;;;;;;;;6.18;59.10;101153.16;4945864;28;4726;-94
2022/04/13 03:03:16;;;;;;;;;;;;;;;6.18;59.31;101147.78;4973638;28;1577;-94
2022/04/13 03:05:43;;;;;;;;;;;;;;;6.19;59.42;101137.91;4975051;28;1914;-94
2022/04/13 03:08:09;;;;;;;;;;;;;;;6.19;59.23;101129.91;4961330;28;2195;-94
2022/04/13 03:10:36;;;;;;;;;;;;;;;6.17;59.18;101126.56;4944882;29;2150;-94
2022/04/13 03:13:03;;;;;;;;;;;;;;;6.17;59.15;101124.72;4939419;28;1830;-94
2022/04/13 03:15:30;;;;;;;;;;;;;;;6.16;59.25;101101.66;4938902;29;1860;-94
2022/04/13 03:17:56;;;;;;;;;;;;;;;6.15;59.20;101102.69;4939750;29;1227;-93
2022/04/13 03:20:23;;;;;;;;;;;;;;;6.15;59.01;101108.03;4955168;29;1277;-94
2022/04/13 03:22:50;;;;;;;;;;;;;;;6.15;59.06;101108.03;4957247;29;2209;-95
2022/04/13 03:25:16;;;;;;;;;;;;;;;6.14;59.27;101098.31;4959181;29;1914;-94
2022/04/13 03:27:43;;;;;;;;;;;;;;;6.13;59.05;101102.00;4958409;29;1262;-93
2022/04/13 03:30:10;;;;;;;;;;;;;;;6.12;59.24;101103.88;4964423;28;2574;-93
2022/04/13 03:32:36;;;;;;;;;;;;;;;6.12;59.02;101092.34;4923440;29;1496;-94
2022/04/13 03:35:03;;;;;;;;;;;;;;;6.11;59.32;101094.16;4950735;29;2469;-94
2022/04/13 03:37:29;;;;;;;;;;;;;;;6.11;58.99;101094.16;4941877;29;1713;-94
2022/04/13 03:39:56;;;;;;;;;;;;;;;6.09;59.26;101088.16;4972820;28;2424;-93
2022/04/13 03:42:23;;;;;;;;;;;;;;;6.10;58.95;101089.00;4927383;29;1926;-94
2022/04/13 03:44:49;;;;;;;;;;;;;;;6.07;58.82;101087.50;4936622;29;1988;-94
2022/04/13 03:47:16;;;;;;;;;;;;;;;6.09;59.22;101087.34;4938982;29;1922;-93
2022/04/13 03:49:42;;;;;;;;;;;;;;;6.08;58.94;101091.84;4939544;29;2271;-94
2022/04/13 03:52:09;;;;;;;;;;;;;;;6.07;58.97;101082.16;4939411;29;1515;-94
2022/04/13 03:54:35;;;;;;;;;;;;;;;6.07;59.11;101062.63;4937881;29;1170;-93
2022/04/13 03:57:02;;;;;;;;;;;;;;;6.07;58.95;101073.31;4943772;29;1955;-93
2022/04/13 03:59:29;;;;;;;;;;;;;;;6.07;59.20;101071.47;4938711;29;1210;-93
2022/04/13 04:01:55;;;;;;;;;;;;;;;6.06;59.02;101071.63;4939729;29;2465;-94
2022/04/13 04:04:22;;;;;;;;;;;;;;;6.05;58.94;101078.81;4958731;29;1134;-94
2022/04/13 04:06:48;;;;;;;;;;;;;;;6.06;58.98;101096.56;4939671;29;1902;-94
2022/04/13 04:09:16;;;;;;;;;;;;;;;6.04;58.97;101095.06;4959974;28;1772;-93
2022/04/13 04:11:42;;;;;;;;;;;;;;;6.03;59.17;101082.66;4922156;29;2451;-94
2022/04/13 04:14:09;;;;;;;;;;;;;;;6.01;58.92;101100.75;4939363;29;2339;-94
2022/04/13 04:16:36;;;;;;;;;;;;;;;6.02;58.96;101102.41;4945543;29;1340;-93
2022/04/13 04:19:02;;;;;;;;;;;;;;;6.02;59.04;101108.59;4937803;29;2030;-94
2022/04/13 04:21:29;;;;;;;;;;;;;;;6.03;59.02;101101.41;4934133;29;2157;-93
2022/04/13 04:23:55;;;;;;;;;;;;;;;6.02;59.09;101105.91;4929826;29;1207;-93
2022/04/13 04:26:22;;;;;;;;;;;;;;;6.02;58.62;101107.75;4938204;29;1990;-93
2022/04/13 04:28:48;;;;;;;;;;;;;;;6.01;58.72;101100.75;4944901;28;2397;-94
2022/04/13 04:31:19;;;;;;;;;;;;;;;6.01;59.02;101106.09;4931380;29;1847;-94
2022/04/13 04:33:45;;;;;;;;;;;;;;;6.02;58.95;101107.75;4973059;28;1389;-93
2022/04/13 04:36:12;;;;;;;;;;;;;;;6.01;58.72;101106.09;4956818;28;2002;-94
2022/04/13 04:38:39;;;;;;;;;;;;;;;6.01;58.87;101112.28;4953616;28;4750;-94
2022/04/13 04:41:07;;;;;;;;;;;;;;;5.99;58.89;101119.63;4950674;29;2107;-94
2022/04/13 04:43:33;;;;;;;;;;;;;;;5.99;58.88;101116.13;4956315;29;2047;-94
2022/04/13 04:46:00;;;;;;;;;;;;;;;5.99;58.84;101118.81;4963558;28;2005;-94
2022/04/13 04:48:27;;;;;;;;;;;;;;;5.98;58.88;101126.00;4925343;29;2367;-94
2022/04/13 04:50:53;;;;;;;;;;;;;;;5.98;58.75;101127.84;4931524;28;1489;-94
2022/04/13 04:53:19;;;;;;;;;;;;;;;5.97;58.86;101129.69;4965831;28;1194;-94
2022/04/13 04:55:46;;;;;;;;;;;;;;;5.97;58.71;101135.03;4956885;29;1221;-94
2022/04/13 04:58:12;;;;;;;;;;;;;;;5.97;58.87;101132.38;4952922;28;1789;-93
2022/04/13 05:00:39;;;;;;;;;;;;;;;5.96;58.70;101130.69;4970098;28;1993;-93
2022/04/13 05:03:06;;;;;;;;;;;;;;;5.96;58.84;101136.03;4935952;29;1438;-93
2022/04/13 05:05:32;;;;;;;;;;;;;;;5.96;58.71;101129.84;4926102;29;1911;-93
2022/04/13 05:07:59;;;;;;;;;;;;;;;5.95;58.87;101125.53;4931372;29;2000;-93
2022/04/13 05:10:26;;;;;;;;;;;;;;;5.94;58.99;101132.69;4947684;29;2575;-94
2022/04/13 05:12:56;;;;;;;;;;;;;;;5.95;58.64;101139.72;4948394;28;1535;-93
2022/04/13 05:15:23;;;;;;;;;;;;;;;5.94;58.54;101132.69;4954460;29;1274;-94
2022/04/13 05:17:49;;;;;;;;;;;;;;;5.94;58.84;101135.38;4947213;29;2043;-93
2022/04/13 05:20:16;;;;;;;;;;;;;;;5.94;58.79;101138.03;4921800;29;1494;-93
2022/04/13 05:22:42;;;;;;;;;;;;;;;5.93;58.88;101141.72;4928091;29;1729;-93
2022/04/13 05:25:09;;;;;;;;;;;;;;;5.95;58.84;101144.25;4956564;29;1309;-93
2022/04/13 05:27:36;;;;;;;;;;;;;;;5.92;58.50;101143.53;4947208;29;2317;-93
2022/04/13 05:30:03;;;;;;;;;;;;;;;5.93;58.84;101155.09;4948835;28;1836;-93
2022/04/13 05:32:30;;;;;;;;;;;;;;;5.94;58.61;101158.59;4938839;29;1450;-93
2022/04/13 05:34:56;;;;;;;;;;;;;;;5.92;58.50;101161.44;4940726;29;1199;-94
2022/04/13 05:37:23;;;;;;;;;;;;;;;5.91;58.74;101171.31;4942389;28;1724;-93
2022/04/13 05:39:49;;;;;;;;;;;;;;;5.90;58.88;101166.13;4953029;29;1171;-94
2022/04/13 05:42:16;;;;;;;;;;;;;;;5.90;58.85;101168.78;4946686;29;1438;-94
2022/04/13 05:44:43;;;;;;;;;;;;;;;5.91;58.47;101168.63;4933376;29;1780;-93
2022/04/13 05:47:09;;;;;;;;;;;;;;;5.90;58.92;101166.13;4945853;28;2045;-94
2022/04/13 05:49:36;;;;;;;;;;;;;;;5.89;58.68;101169.81;4972737;28;1216;-94
2022/04/13 05:52:02;;;;;;;;;;;;;;;5.89;58.75;101161.78;4945113;29;1966;-94
2022/04/13 05:54:29;;;;;;;;;;;;;;;5.88;58.82;101171.66;4957867;28;1729;-93
2022/04/13 05:56:55;;;;;;;;;;;;;;;5.88;58.92;101168.97;4927946;29;2352;-93
2022/04/13 05:59:22;;;;;;;;;;;;;;;5.87;58.52;101167.28;4940069;29;1287;-93
2022/04/13 06:01:48;;;;;;;;;;;;;;;5.88;58.70;101170.78;4937589;29;1995;-93
2022/04/13 06:04:15;;;;;;;;;;;;;;;5.88;58.55;101160.09;4953423;29;1199;-94
2022/04/13 06:06:41;;;;;;;;;;;;;;;5.87;58.58;101163.78;4935375;29;1981;-93
2022/04/13 06:09:08;;;;;;;;;;;;;;;5.87;58.64;101171.81;4935063;29;2477;-94
2022/04/13 06:11:34;;;;;;;;;;;;;;;5.87;58.55;101177.97;4941605;29;1882;-94
2022/04/13 06:14:01;;;;;;;;;;;;;;;5.87;58.48;101171.81;4937985;29;1888;-94
2022/04/13 06:16:28;;;;;;;;;;;;;;;5.87;58.40;101174.47;4929970;29;2120;-94
2022/04/13 06:18:54;;;;;;;;;;;;;;;5.85;58.75;101166.66;4939822;29;1446;-93
2022/04/13 06:21:21;;;;;;;;;;;;;;;5.85;58.61;101171.13;4935244;29;2007;-93
2022/04/13 06:23:48;;;;;;;;;;;;;;;5.85;58.69;101173.81;4937264;29;1832;-93
2022/04/13 06:26:14;;;;;;;;;;;;;;;5.86;58.46;101176.31;4938290;29;2159;-93
2022/04/13 06:28:41;;;;;;;;;;;;;;;5.85;58.61;101181.84;4929879;29;1809;-94
2022/04/13 06:31:07;;;;;;;;;;;;;;;5.86;58.75;101180.84;4928671;29;1913;-93
2022/04/13 06:33:34;;;;;;;;;;;;;;;5.84;58.56;101183.69;4942710;29;1494;-94
2022/04/13 06:36:01;;;;;;;;;;;;;;;5.86;58.42;101186.19;4934712;29;2224;-93
2022/04/13 06:38:27;;;;;;;;;;;;;;;5.84;58.47;101185.53;4938888;29;1961;-94
2022/04/13 06:40:55;;;;;;;;;;;;;;;5.84;58.37;101180.19;4935513;29;1587;-94
2022/04/13 06:43:22;;;;;;;;;;;;;;;5.83;58.17;101184.69;4938637;29;1468;-94
2022/04/13 06:45:48;;;;;;;;;;;;;;;5.85;58.47;101179.16;4929153;29;1910;-94
2022/04/13 06:48:15;;;;;;;;;;;;;;;5.84;58.58;101185.53;4924038;29;1915;-93
2022/04/13 06:50:41;;;;;;;;;;;;;;;5.82;58.50;101175.00;4944610;29;2021;-94
2022/04/13 06:53:08;;;;;;;;;;;;;;;5.83;58.27;101178.53;4927113;29;2043;-94
2022/04/13 06:55:37;;;;;;;;;;;;;;;5.82;58.39;101182.19;4958148;29;1850;-94
2022/04/13 06:58:04;;;;;;;;;;;;;;;5.82;58.52;101193.69;4956801;29;2015;-93
2022/04/13 07:00:30;;;;;;;;;;;;;;;5.81;58.54;101186.69;4941569;29;1960;-93
2022/04/13 07:02:57;;;;;;;;;;;;;;;5.82;58.49;101183.00;4940459;29;2042;-94
2022/04/13 07:05:24;;;;;;;;;;;;;;;5.82;58.45;101183.00;4951275;29;1832;-93
2022/04/13 07:07:50;;;;;;;;;;;;;;;5.81;58.53;101184.03;4945448;29;2044;-94
2022/04/13 07:10:17;;;;;;;;;;;;;;;5.81;58.35;101180.53;4950444;29;2878;-93
2022/04/13 07:12:43;;;;;;;;;;;;;;;5.81;58.32;101191.22;4942485;29;2413;-93
2022/04/13 07:15:11;;;;;;;;;;;;;;;5.82;58.47;101191.03;4941020;29;1370;-94
2022/04/13 07:17:38;;;;;;;;;;;;;;;5.80;58.25;101201.09;4939781;29;1480;-94
2022/04/13 07:20:04;;;;;;;;;;;;;;;5.82;58.37;101190.19;4942282;29;1198;-94
2022/04/13 07:22:31;;;;;;;;;;;;;;;5.82;58.59;101200.91;4939374;29;1285;-93
2022/04/13 07:24:57;;;;;;;;;;;;;;;5.80;58.46;101203.75;4933944;29;1526;-94
2022/04/13 07:27:24;;;;;;;;;;;;;;;5.80;58.52;101205.59;4950515;29;2114;-93
2022/04/13 07:29:50;;;;;;;;;;;;;;;5.80;58.38;101208.28;4944944;29;1971;-94
2022/04/13 07:32:17;;;;;;;;;;;;;;;5.81;58.46;101213.44;4928540;29;1982;-93
2022/04/13 07:34:43;;;;;;;;;;;;;;;5.82;58.34;101217.75;4942212;29;1190;-94
2022/04/13 07:37:10;;;;;;;;;;;;;;;5.81;58.20;101207.25;4940434;29;2145;-93
2022/04/13 07:39:36;;;;;;;;;;;;;;;5.80;58.28;101209.09;4935684;29;2222;-94
2022/04/13 07:42:03;;;;;;;;;;;;;;;5.79;58.37;101210.09;4941197;28;2323;-94
2022/04/13 07:44:30;;;;;;;;;;;;;;;5.80;58.40;101214.44;4963050;28;1793;-94
2022/04/13 07:46:56;;;;;;;;;;;;;;;5.80;58.18;101213.63;4940424;29;1942;-94
2022/04/13 07:49:23;;;;;;;;;;;;;;;5.81;58.26;101209.94;4932521;29;1979;-94
2022/04/13 07:51:50;;;;;;;;;;;;;;;5.81;58.09;101220.63;4932427;29;2691;-94
2022/04/13 07:54:16;;;;;;;;;;;;;;;5.81;58.22;101225.97;4938498;29;1885;-94
2022/04/13 07:56:43;;;;;;;;;;;;;;;5.80;58.17;101230.50;4920120;29;1988;-94
2022/04/13 07:59:09;;;;;;;;;;;;;;;5.80;58.40;101235.00;4936877;29;2198;-94
2022/04/13 08:01:36;;;;;;;;;;;;;;;5.79;58.26;101231.47;4934179;29;2303;-94
2022/04/13 08:04:02;;;;;;;;;;;;;;;5.80;58.03;101235.00;4941367;29;1932;-94
2022/04/13 08:06:29;;;;;;;;;;;;;;;5.81;58.40;101231.31;4940595;29;1906;-94
2022/04/13 08:08:56;;;;;;;;;;;;;;;5.79;58.57;101244.84;4932277;29;2012;-93
2022/04/13 08:11:22;;;;;;;;;;;;;;;5.80;58.34;101238.50;4941734;29;1207;-95
2022/04/13 08:13:49;;;;;;;;;;;;;;;5.79;58.33;101239.50;4939962;29;2395;-95
2022/04/13 08:16:16;;;;;;;;;;;;;;;5.80;58.20;101245.69;4935874;29;2175;-94
2022/04/13 08:18:48;;;;;;;;;;;;;;;5.79;58.18;101239.50;4942744;29;1718;-96
2022/04/13 08:21:14;;;;;;;;;;;;;;;5.80;58.41;101240.34;4932632;29;1674;-95
2022/04/13 08:23:41;;;;;;;;;;;;;;;5.79;57.99;101230.66;4951697;29;2080;-95
2022/04/13 08:26:07;;;;;;;;;;;;;;;5.78;58.34;101235.16;4936627;29;2086;-93
2022/04/13 08:28:34;;;;;;;;;;;;;;;5.79;58.10;101226.13;4930876;29;1919;-94
2022/04/13 08:31:02;;;;;;;;;;;;;;;5.79;58.36;101219.94;4951041;28;1818;-94
2022/04/13 08:33:28;;;;;;;;;;;;;;;5.79;58.32;101219.94;4962080;28;2586;-94
2022/04/13 08:35:55;;;;;;;;;;;;;;;5.77;58.31;101211.28;4944833;29;2399;-93
2022/04/13 08:38:21;;;;;;;;;;;;;;;5.78;58.27;101207.59;4956548;29;1774;-93
2022/04/13 08:40:48;;;;;;;;;;;;;;;5.78;58.11;101210.28;4940651;29;2619;-94
2022/04/13 08:43:14;;;;;;;;;;;;;;;5.78;58.44;101212.94;4941041;29;1241;-94
2022/04/13 08:45:41;;;;;;;;;;;;;;;5.78;58.15;101219.13;4925201;29;2155;-95
2022/04/13 08:48:08;;;;;;;;;;;;;;;5.79;58.32;101211.94;4925882;29;1984;-94
2022/04/13 08:50:34;;;;;;;;;;;;;;;5.80;58.31;101210.94;4938830;29;2596;-95
2022/04/13 08:53:02;;;;;;;;;;;;;;;5.79;58.18;101204.75;4936929;29;1967;-95
2022/04/13 08:55:29;;;;;;;;;;;;;;;5.77;58.08;101198.75;4921687;29;1160;-94
2022/04/13 08:57:55;;;;;;;;;;;;;;;5.76;58.29;101205.09;4950430;29;1453;-94
2022/04/13 09:00:22;;;;;;;;;;;;;;;5.77;58.20;101195.25;4935900;28;2108;-94
2022/04/13 09:02:48;;;;;;;;;;;;;;;5.77;58.34;101197.94;4923869;29;2196;-94
2022/04/13 09:05:16;;;;;;;;;;;;;;;5.76;58.17;101191.72;4924949;29;1813;-94
2022/04/13 09:07:42;;;;;;;;;;;;;;;5.76;58.38;101193.56;4952849;28;2093;-94
2022/04/13 09:10:10;;;;;;;;;;;;;;;5.77;58.13;101195.25;4929867;29;2042;-93
2022/04/13 09:12:36;;;;;;;;;;;;;;;5.75;58.18;101198.09;4940751;29;1345;-93
2022/04/13 09:15:03;;;;;;;;;;;;;;;5.76;58.47;101194.41;4964207;28;1768;-93
2022/04/13 09:17:29;;;;;;;;;;;;;;;5.76;58.25;101198.91;4934972;29;2130;-94
2022/04/13 09:19:56;;;;;;;;;;;;;;;5.77;58.30;101195.25;4936443;28;2268;-94
2022/04/13 09:22:23;;;;;;;;;;;;;;;5.76;58.31;101190.91;4937832;29;2224;-93
2022/04/13 09:24:49;;;;;;;;;;;;;;;5.76;58.31;101188.22;4934156;29;1397;-94
2022/04/13 09:27:16;;;;;;;;;;;;;;;5.76;58.06;101198.91;4937977;29;1906;-93
2022/04/13 09:29:42;;;;;;;;;;;;;;;5.75;58.47;101194.59;4930743;29;2641;-94
2022/04/13 09:32:08;;;;;;;;;;;;;;;5.75;58.35;101203.44;4940621;29;1207;-93
2022/04/13 09:34:35;;;;;;;;;;;;;;;5.75;58.44;101206.09;4929071;29;1305;-93
2022/04/13 09:37:01;;;;;;;;;;;;;;;5.76;58.45;101205.09;4922459;29;2282;-93
2022/04/13 09:39:28;;;;;;;;;;;;;;;5.75;58.44;101198.09;4951529;28;4840;-93
2022/04/13 09:41:54;;;;;;;;;;;;;;;5.75;58.24;101197.25;4937768;28;1220;-93
2022/04/13 09:44:21;;;;;;;;;;;;;;;5.75;58.37;101191.91;4965861;28;1513;-94
2022/04/13 09:46:48;;;;;;;;;;;;;;;5.75;58.38;101189.25;4961801;28;5144;-93
2022/04/13 09:49:15;;;;;;;;;;;;;;;5.75;58.49;101182.03;4944596;29;2662;-93
2022/04/13 09:51:41;;;;;;;;;;;;;;;5.76;57.96;101182.88;4941039;29;1747;-93
2022/04/13 09:54:07;;;;;;;;;;;;;;;5.73;58.18;101181.38;4938778;29;1932;-94
2022/04/13 09:56:34;;;;;;;;;;;;;;;5.72;58.08;101170.88;4937561;29;1958;-94
2022/04/13 09:59:01;;;;;;;;;;;;;;;5.72;58.33;101166.34;4924752;29;2047;-93
2022/04/13 10:01:28;;;;;;;;;;;;;;;5.73;58.23;101170.69;4938308;29;1429;-93
2022/04/13 10:03:54;;;;;;;;;;;;;;;5.74;58.06;101160.84;4925410;28;1178;-93
2022/04/13 10:06:21;;;;;;;;;;;;;;;5.73;58.01;101151.16;4953155;28;1716;-94
2022/04/13 10:08:47;;;;;;;;;;;;;;;5.73;58.13;101148.47;4948077;29;2333;-93
2022/04/13 10:11:14;;;;;;;;;;;;;;;5.73;58.29;101143.13;4940916;29;3415;-93
2022/04/13 10:13:41;;;;;;;;;;;;;;;5.72;57.98;101142.31;4948704;28;2160;-93
2022/04/13 10:16:08;;;;;;;;;;;;;;;5.73;58.23;101140.47;4926970;29;2595;-93
2022/04/13 10:18:34;;;;;;;;;;;;;;;5.74;58.12;101140.28;4931314;29;2276;-93
2022/04/13 10:21:00;;;;;;;;;;;;;;;5.73;58.36;101140.47;4961672;28;1184;-93
2022/04/13 10:23:27;;;;;;;;;;;;;;;5.73;58.36;101137.78;4946538;28;1849;-93
2022/04/13 10:25:53;;;;;;;;;;;;;;;5.73;58.20;101135.09;4954256;29;1185;-93
2022/04/13 10:28:20;;;;;;;;;;;;;;;5.73;58.32;101121.75;4948009;29;1949;-92
2022/04/13 10:30:48;;;;;;;;;;;;;;;5.73;58.18;101121.75;4946728;29;2255;-94
2022/04/13 10:33:14;;;;;;;;;;;;;;;5.73;58.13;101117.22;4955404;29;1705;-96
2022/04/13 10:35:40;;;;;;;;;;;;;;;5.72;58.00;101117.41;4936018;29;1773;-94
2022/04/13 10:38:07;;;;;;;;;;;;;;;5.73;58.30;101111.06;4954413;29;1776;-95
2022/04/13 10:40:34;;;;;;;;;;;;;;;5.73;57.98;101114.56;4941648;29;1330;-93
2022/04/13 10:43:00;;;;;;;;;;;;;;;5.73;58.16;101108.38;4933677;29;1895;-94
2022/04/13 10:45:27;;;;;;;;;;;;;;;5.73;57.95;101114.56;4950890;29;1865;-93
2022/04/13 10:47:54;;;;;;;;;;;;;;;5.72;58.02;101110.22;4929154;29;2273;-93
2022/04/13 10:50:21;;;;;;;;;;;;;;;5.72;58.09;101118.25;4925993;29;1842;-94
2022/04/13 10:52:48;;;;;;;;;;;;;;;5.72;58.23;101123.59;4943190;29;1464;-93
2022/04/13 10:55:14;;;;;;;;;;;;;;;5.72;58.30;101112.91;4942443;29;2050;-94
2022/04/13 10:57:41;;;;;;;;;;;;;;;5.74;58.15;101118.91;4953249;28;1935;-94
2022/04/13 11:00:07;;;;;;;;;;;;;;;5.73;58.21;101122.56;4931607;29;1796;-94
2022/04/13 11:02:34;;;;;;;;;;;;;;;5.73;58.08;101111.06;4939926;29;1301;-93
2022/04/13 11:05:00;;;;;;;;;;;;;;;5.71;58.20;101108.56;4961404;28;1464;-94
2022/04/13 11:07:27;;;;;;;;;;;;;;;5.70;58.08;101112.22;4947622;28;1991;-94
2022/04/13 11:09:54;;;;;;;;;;;;;;;5.69;58.31;101114.06;4938621;29;1951;-94
2022/04/13 11:12:20;;;;;;;;;;;;;;;5.71;58.17;101124.59;4928853;29;1675;-94
2022/04/13 11:14:47;;;;;;;;;;;;;;;5.72;58.15;101120.09;4942527;29;1234;-94
2022/04/13 11:17:14;;;;;;;;;;;;;;;5.72;57.94;101114.75;4930324;29;1920;-94
2022/04/13 11:19:41;;;;;;;;;;;;;;;5.70;58.18;101107.72;4927449;29;1948;-94
2022/04/13 11:22:07;;;;;;;;;;;;;;;5.71;58.35;101111.25;4923472;29;1323;-94
2022/04/13 11:24:34;;;;;;;;;;;;;;;5.70;58.12;101107.72;4925844;29;1875;-93
2022/04/13 11:27:00;;;;;;;;;;;;;;;5.70;58.35;101102.38;4947327;28;1843;-93
2022/04/13 11:29:27;;;;;;;;;;;;;;;5.70;58.06;101098.88;4947136;28;1979;-94
2022/04/13 11:31:53;;;;;;;;;;;;;;;5.69;58.32;101087.34;4947050;29;2334;-93
2022/04/13 11:34:20;;;;;;;;;;;;;;;5.70;58.25;101085.50;4953959;29;1618;-93
2022/04/13 11:36:46;;;;;;;;;;;;;;;5.70;58.22;101085.50;4955854;28;1654;-94
2022/04/13 11:39:13;;;;;;;;;;;;;;;5.69;58.30;101082.00;4952472;29;1903;-94
2022/04/13 11:41:39;;;;;;;;;;;;;;;5.69;58.12;101073.16;4925553;29;2495;-94
2022/04/13 11:44:06;;;;;;;;;;;;;;;5.70;58.22;101069.47;4944141;28;1998;-94
2022/04/13 11:46:32;;;;;;;;;;;;;;;5.69;58.18;101068.66;4950340;28;2018;-93
2022/04/13 11:48:59;;;;;;;;;;;;;;;5.69;58.35;101059.78;4926403;29;2235;-94
2022/04/13 11:51:26;;;;;;;;;;;;;;;5.68;57.98;101053.63;4941885;29;1880;-94
2022/04/13 11:53:53;;;;;;;;;;;;;;;5.68;58.25;101045.59;4974659;28;1338;-94
2022/04/13 11:56:20;;;;;;;;;;;;;;;5.69;58.34;101046.44;4947148;28;2005;-94
2022/04/13 11:58:47;;;;;;;;;;;;;;;5.68;58.15;101037.59;4950042;29;2022;-93
2022/04/13 12:01:13;;;;;;;;;;;;;;;5.69;58.27;101039.25;4966196;28;2259;-93
2022/04/13 12:03:40;;;;;;;;;;;;;;;5.68;58.27;101018.06;4927966;29;1625;-93
2022/04/13 12:06:07;;;;;;;;;;;;;;;5.67;58.33;101011.03;4975315;28;1185;-93
2022/04/13 12:08:35;;;;;;;;;;;;;;;5.69;58.46;101012.50;4938724;29;1907;-93
2022/04/13 12:11:01;;;;;;;;;;;;;;;5.68;58.05;100996.66;4945662;28;4837;-93
2022/04/13 12:13:29;;;;;;;;;;;;;;;5.67;58.00;101000.34;4935730;29;3630;-93
2022/04/13 12:15:56;;;;;;;;;;;;;;;5.68;58.24;100985.97;4963522;28;1783;-93
2022/04/13 12:18:22;;;;;;;;;;;;;;;5.68;58.11;100985.97;4942574;29;1954;-93
2022/04/13 12:20:49;;;;;;;;;;;;;;;5.68;58.46;100967.28;4938357;29;1217;-93
2022/04/13 12:23:15;;;;;;;;;;;;;;;5.67;58.28;100960.25;4919790;29;2637;-93
2022/04/13 12:25:42;;;;;;;;;;;;;;;5.67;58.04;100954.91;4933998;29;2115;-93
2022/04/13 12:28:08;;;;;;;;;;;;;;;5.68;58.31;100940.56;4958981;28;1981;-93
2022/04/13 12:30:34;;;;;;;;;;;;;;;5.68;58.16;100940.56;4971781;28;1850;-92
2022/04/13 12:33:01;;;;;;;;;;;;;;;5.68;58.29;100935.22;4926106;29;2561;-93
2022/04/13 12:35:27;;;;;;;;;;;;;;;5.67;58.23;100928.19;4943771;29;2282;-94
2022/04/13 12:37:54;;;;;;;;;;;;;;;5.66;58.39;100924.69;4940267;29;1915;-92
2022/04/13 12:40:20;;;;;;;;;;;;;;;5.67;58.04;100920.16;4951270;29;2594;-94
2022/04/13 12:42:47;;;;;;;;;;;;;;;5.65;58.38;100920.34;4954793;29;1306;-93
2022/04/13 12:45:13;;;;;;;;;;;;;;;5.67;58.20;100929.00;4932330;28;2094;-94
2022/04/13 12:47:40;;;;;;;;;;;;;;;5.66;58.51;100914.00;4941003;29;1907;-94
2022/04/13 12:50:06;;;;;;;;;;;;;;;5.67;58.36;100925.50;4943829;28;1181;-94
2022/04/13 12:52:33;;;;;;;;;;;;;;;5.67;58.09;100915.63;4963993;28;2637;-94
2022/04/13 12:55:00;;;;;;;;;;;;;;;5.67;58.33;100890.75;4956441;28;2096;-94